Terminal Aerodrome Forecast
Issued by NWS Duluth, MN

Home | Current Version | Previous Version | Text Only | Print | Product List | Glossary On
Versions: 1 2 3 4 5 6 7 8 9 10 11 12 13 14 15 16 17 18 19 20 21 22 23 24 25 26 27 28 29
516
FTUS43 KDLH 171404 AAA
TAFINL
TAF AMD
KINL 171404Z 1714/1812 20004KT 3SM BR OVC004
     FM171800 23006KT 6SM BR BKN008
     FM172000 23007KT P6SM SCT010
     FM181100 20007KT P6SM OVC008=

USA.gov is the U.S. government's official web portal to all federal, state and local government web resources and services.